Time;durP1;ratioP1;P1;durP2;ratioP2;P2;SDS_P1;SDS_P2;PMS_P1;PMS_P2;Temp;Humidity;BMP_temperature;BMP_pressure;BME280_temperature;BME280_humidity;BME280_pressure;Samples;Min_cycle;Max_cycle;Signal;HPM_P1;HPM_P2
2023/04/09 00:01:06;;;;;;;5.70;4.78;;;7.40;99.90;;;;;;4986260;28;20057;-81
2023/04/09 00:03:33;;;;;;;5.70;4.82;;;7.40;99.90;;;;;;5008746;28;20492;-83
2023/04/09 00:06:00;;;;;;;5.68;4.55;;;7.40;99.90;;;;;;4989565;28;20133;-81
2023/04/09 00:08:27;;;;;;;5.53;4.75;;;7.30;99.90;;;;;;4979695;28;20069;-81
2023/04/09 00:10:55;;;;;;;5.22;4.03;;;7.30;99.90;;;;;;4984408;28;20593;-81
2023/04/09 00:13:22;;;;;;;5.18;4.00;;;7.30;99.90;;;;;;4984465;28;20053;-81
2023/04/09 00:16:04;;;;;;;5.63;4.00;;;7.30;99.90;;;;;;5002315;28;20052;-82
2023/04/09 00:18:31;;;;;;;6.00;4.45;;;7.30;99.90;;;;;;4984711;28;20054;-81
2023/04/09 00:20:58;;;;;;;6.28;5.18;;;7.30;99.90;;;;;;4978123;28;20488;-81
2023/04/09 00:23:25;;;;;;;6.18;5.07;;;7.30;99.90;;;;;;5000723;28;20132;-81
2023/04/09 00:25:52;;;;;;;5.50;4.65;;;7.30;99.90;;;;;;4979610;28;20046;-81
2023/04/09 00:28:19;;;;;;;5.32;4.30;;;7.30;99.90;;;;;;4987927;28;20053;-82
2023/04/09 00:30:46;;;;;;;5.03;4.18;;;7.30;99.90;;;;;;4985484;28;20057;-81
2023/04/09 00:33:13;;;;;;;5.60;4.60;;;7.30;99.90;;;;;;4983278;28;20099;-82
2023/04/09 00:35:40;;;;;;;5.78;4.60;;;7.30;99.90;;;;;;4983784;28;20103;-81
2023/04/09 00:38:07;;;;;;;6.07;5.03;;;7.30;99.90;;;;;;4975979;28;20058;-82
2023/04/09 00:40:34;;;;;;;5.82;4.45;;;7.40;99.90;;;;;;4985499;28;20481;-83
2023/04/09 00:43:01;;;;;;;5.05;4.30;;;7.40;99.90;;;;;;4995917;28;20053;-81
2023/04/09 00:45:28;;;;;;;5.03;4.53;;;7.40;99.90;;;;;;4985791;28;20145;-82
2023/04/09 00:47:55;;;;;;;5.38;4.50;;;7.50;99.90;;;;;;5002041;28;21073;-82
2023/04/09 00:50:22;;;;;;;4.97;4.40;;;7.50;99.90;;;;;;4988647;28;20115;-83
2023/04/09 00:52:49;;;;;;;5.50;4.38;;;7.60;99.90;;;;;;4983511;28;20048;-82
2023/04/09 00:55:16;;;;;;;5.53;4.28;;;7.70;99.90;;;;;;4984125;28;20247;-81
2023/04/09 00:57:43;;;;;;;5.65;4.63;;;7.70;99.90;;;;;;4997301;28;20050;-81
2023/04/09 01:00:11;;;;;;;5.72;4.53;;;7.80;99.90;;;;;;4988894;28;20385;-81
2023/04/09 01:02:38;;;;;;;5.60;4.65;;;7.80;99.90;;;;;;4985681;28;20533;-82
2023/04/09 01:05:06;;;;;;;4.78;4.22;;;7.90;99.90;;;;;;4983157;28;20053;-81
2023/04/09 01:08:00;;;;;;;5.35;4.70;;;7.90;99.90;;;;;;4972180;28;20087;-82
2023/04/09 01:10:38;;;;;;;5.63;4.68;;;7.90;99.90;;;;;;5004246;28;20477;-81
2023/04/09 01:13:12;;;;;;;4.93;3.85;;;7.80;99.90;;;;;;4982683;28;20045;-81
2023/04/09 01:15:47;;;;;;;6.00;4.35;;;7.80;99.90;;;;;;5004075;28;20469;-81
2023/04/09 01:18:29;;;;;;;5.72;4.60;;;7.70;99.90;;;;;;5000229;28;20132;-81
2023/04/09 01:20:57;;;;;;;5.45;4.22;;;7.70;99.90;;;;;;5002492;28;20104;-81
2023/04/09 01:23:40;;;;;;;5.60;4.07;;;7.60;99.90;;;;;;4999032;28;20161;-80
2023/04/09 01:26:25;;;;;;;6.20;4.32;;;7.60;99.90;;;;;;5010396;28;20409;-82
2023/04/09 01:28:53;;;;;;;5.60;4.90;;;7.60;99.90;;;;;;4988660;28;20139;-80
2023/04/09 01:31:25;;;;;;;5.22;4.15;;;7.60;99.90;;;;;;4993958;23;20398;-77
2023/04/09 01:33:52;;;;;;;5.55;3.95;;;7.60;99.90;;;;;;4967772;28;20038;-78
2023/04/09 01:36:19;;;;;;;6.13;4.53;;;7.50;99.90;;;;;;4967847;28;20500;-78
2023/04/09 01:38:46;;;;;;;5.75;4.57;;;7.50;99.90;;;;;;4994834;28;20089;-78
2023/04/09 01:41:17;;;;;;;6.57;4.78;;;7.50;99.90;;;;;;5000835;28;20042;-78
2023/04/09 01:43:44;;;;;;;6.05;4.88;;;7.50;99.90;;;;;;4994494;28;20051;-77
2023/04/09 01:46:11;;;;;;;5.57;4.53;;;7.50;99.90;;;;;;4995180;28;20476;-79
2023/04/09 01:48:38;;;;;;;5.65;4.55;;;7.40;99.90;;;;;;4998119;28;20165;-80
2023/04/09 01:51:05;;;;;;;5.97;4.82;;;7.40;99.90;;;;;;4981058;28;20103;-77
2023/04/09 01:53:32;;;;;;;6.38;5.07;;;7.40;99.90;;;;;;4997198;28;20050;-77
2023/04/09 01:56:00;;;;;;;5.10;4.18;;;7.40;99.90;;;;;;4997564;28;20050;-77
2023/04/09 01:58:32;;;;;;;5.88;4.95;;;7.30;99.90;;;;;;4990684;28;20054;-79
2023/04/09 02:01:21;;;;;;;6.05;4.90;;;7.30;99.90;;;;;;4998669;28;20444;-77
2023/04/09 02:03:51;;;;;;;5.13;4.35;;;7.20;99.90;;;;;;5003855;28;20091;-77
2023/04/09 02:06:43;;;;;;;6.72;4.93;;;7.20;99.90;;;;;;5003980;28;20064;-77
2023/04/09 02:09:10;;;;;;;5.45;4.40;;;7.20;99.90;;;;;;5003703;28;20058;-77
2023/04/09 02:11:37;;;;;;;5.13;4.40;;;7.20;99.90;;;;;;4994074;28;20072;-77
2023/04/09 02:14:04;;;;;;;6.15;4.60;;;7.20;99.90;;;;;;5000945;28;20073;-78
2023/04/09 02:16:31;;;;;;;5.75;4.45;;;7.10;99.90;;;;;;4985587;28;20141;-77
2023/04/09 02:19:00;;;;;;;6.30;4.78;;;7.10;99.90;;;;;;4967804;28;20046;-78
2023/04/09 02:21:27;;;;;;;5.32;4.43;;;7.00;99.90;;;;;;4997437;28;20850;-77
2023/04/09 02:23:54;;;;;;;5.50;4.53;;;7.00;99.90;;;;;;4999102;28;20052;-77
2023/04/09 02:26:22;;;;;;;5.55;4.60;;;7.00;99.90;;;;;;4997894;28;20129;-78
2023/04/09 02:28:50;;;;;;;6.03;4.75;;;7.00;99.90;;;;;;4998631;28;20712;-78
2023/04/09 02:31:18;;;;;;;5.15;3.90;;;7.00;99.90;;;;;;5009865;28;20080;-77
2023/04/09 02:33:45;;;;;;;6.15;4.60;;;7.00;99.90;;;;;;4986745;28;20042;-77
2023/04/09 02:36:12;;;;;;;5.97;4.70;;;7.00;99.90;;;;;;4992630;28;20109;-78
2023/04/09 02:38:40;;;;;;;5.95;4.35;;;7.00;99.90;;;;;;4977500;28;20052;-77
2023/04/09 02:41:07;;;;;;;6.60;4.80;;;7.00;99.90;;;;;;4975987;28;20206;-77
2023/04/09 02:43:34;;;;;;;6.03;4.80;;;7.00;99.90;;;;;;5004410;28;20057;-77
2023/04/09 02:46:01;;;;;;;5.13;3.85;;;7.00;99.90;;;;;;5000956;28;20054;-78
2023/04/09 02:48:28;;;;;;;5.90;4.88;;;6.90;99.90;;;;;;4996515;28;20058;-77
2023/04/09 02:50:55;;;;;;;5.60;4.30;;;6.90;99.90;;;;;;4974794;28;20081;-78
2023/04/09 02:53:25;;;;;;;5.95;4.75;;;6.90;99.90;;;;;;4983794;28;20576;-77
2023/04/09 02:55:52;;;;;;;5.18;4.05;;;6.90;99.90;;;;;;4995434;28;20050;-77
2023/04/09 02:58:19;;;;;;;6.13;4.47;;;6.80;99.90;;;;;;4987451;28;20054;-77
2023/04/09 03:00:46;;;;;;;6.15;4.45;;;6.80;99.90;;;;;;4991366;28;20481;-77
2023/04/09 03:03:13;;;;;;;5.68;4.70;;;6.80;99.90;;;;;;5003492;28;20112;-78
2023/04/09 03:05:40;;;;;;;5.05;4.03;;;6.80;99.90;;;;;;4987427;28;20096;-77
2023/04/09 03:08:07;;;;;;;5.53;4.53;;;6.80;99.90;;;;;;4973801;28;20050;-77
2023/04/09 03:10:34;;;;;;;6.03;4.57;;;6.70;99.90;;;;;;5000616;28;20057;-77
2023/04/09 03:13:01;;;;;;;5.22;4.22;;;6.70;99.90;;;;;;4977295;28;20046;-78
2023/04/09 03:15:28;;;;;;;5.78;4.15;;;6.70;99.90;;;;;;5021473;28;20468;-78
2023/04/09 03:17:54;;;;;;;5.80;4.55;;;6.60;99.90;;;;;;4978749;28;20050;-77
2023/04/09 03:20:22;;;;;;;5.50;4.38;;;6.60;99.90;;;;;;4970572;28;20116;-78
2023/04/09 03:22:49;;;;;;;5.20;4.32;;;6.70;99.90;;;;;;5004072;28;20381;-78
2023/04/09 03:25:18;;;;;;;6.03;4.43;;;6.60;99.90;;;;;;5001419;28;20046;-78
2023/04/09 03:27:45;;;;;;;5.10;4.35;;;6.60;99.90;;;;;;4976802;28;20055;-78
2023/04/09 03:30:12;;;;;;;6.85;4.35;;;6.60;99.90;;;;;;4983770;28;20050;-77
2023/04/09 03:32:40;;;;;;;6.05;4.70;;;6.60;99.90;;;;;;4972531;28;20210;-78
2023/04/09 03:35:08;;;;;;;6.03;4.88;;;6.60;99.90;;;;;;5003575;28;20050;-77
2023/04/09 03:37:34;;;;;;;5.95;4.90;;;6.50;99.90;;;;;;4994719;28;20133;-78
2023/04/09 03:40:02;;;;;;;6.18;4.72;;;6.50;99.90;;;;;;4974768;28;20054;-76
2023/04/09 03:42:29;;;;;;;4.88;4.07;;;6.50;99.90;;;;;;5000521;28;20060;-78
2023/04/09 03:44:56;;;;;;;6.35;4.50;;;6.50;99.90;;;;;;4989972;28;20054;-78
2023/04/09 03:47:23;;;;;;;6.05;4.85;;;6.50;99.90;;;;;;4974777;28;20057;-78
2023/04/09 03:49:50;;;;;;;5.10;3.90;;;6.50;99.90;;;;;;4987242;28;20537;-79
2023/04/09 03:52:16;;;;;;;6.45;4.78;;;6.50;99.90;;;;;;4982383;28;20061;-78
2023/04/09 03:54:44;;;;;;;5.57;4.38;;;6.40;99.90;;;;;;5005378;28;20060;-79
2023/04/09 03:57:11;;;;;;;6.07;4.80;;;6.40;99.90;;;;;;4971489;28;20073;-78
2023/04/09 03:59:38;;;;;;;5.53;4.60;;;6.40;99.90;;;;;;4989037;28;20057;-78
2023/04/09 04:02:05;;;;;;;5.43;4.50;;;6.40;99.90;;;;;;5000955;28;20054;-78
2023/04/09 04:04:32;;;;;;;6.32;4.80;;;6.30;99.90;;;;;;4984059;28;20077;-78
2023/04/09 04:06:59;;;;;;;7.50;5.78;;;6.30;99.90;;;;;;5001061;28;20099;-78
2023/04/09 04:09:25;;;;;;;6.78;5.45;;;6.30;99.90;;;;;;4972060;28;20392;-78
2023/04/09 04:11:52;;;;;;;6.18;4.85;;;6.30;99.90;;;;;;4987068;28;20599;-77
2023/04/09 04:14:19;;;;;;;6.68;5.05;;;6.20;99.90;;;;;;5003644;28;20517;-78
2023/04/09 04:16:46;;;;;;;5.57;4.82;;;6.20;99.90;;;;;;4986060;28;20145;-77
2023/04/09 04:19:13;;;;;;;6.93;5.63;;;6.20;99.90;;;;;;5014005;28;20074;-77
2023/04/09 04:21:40;;;;;;;7.00;5.25;;;6.20;99.90;;;;;;4983883;28;20722;-77
2023/04/09 04:24:06;;;;;;;7.82;6.03;;;6.20;99.90;;;;;;5002525;28;20417;-77
2023/04/09 04:26:33;;;;;;;7.07;5.60;;;6.20;99.90;;;;;;4993882;28;20077;-77
2023/04/09 04:29:00;;;;;;;6.80;5.57;;;6.10;99.90;;;;;;4974995;28;20053;-77
2023/04/09 04:31:27;;;;;;;6.68;5.63;;;6.10;99.90;;;;;;4981308;28;20074;-78
2023/04/09 04:33:54;;;;;;;7.65;5.85;;;6.10;99.90;;;;;;4981975;28;20050;-77
2023/04/09 04:36:20;;;;;;;7.90;5.38;;;6.10;99.90;;;;;;4998282;28;20046;-80
2023/04/09 04:38:47;;;;;;;6.85;5.25;;;6.10;99.90;;;;;;4976624;28;20133;-77
2023/04/09 04:41:17;;;;;;;7.63;6.30;;;6.10;99.90;;;;;;4982375;28;20140;-77
2023/04/09 04:43:46;;;;;;;6.97;5.60;;;6.00;99.90;;;;;;4988823;28;20054;-77
2023/04/09 04:46:12;;;;;;;7.35;5.50;;;6.10;99.90;;;;;;4979428;28;20089;-77
2023/04/09 04:48:39;;;;;;;5.88;4.88;;;6.10;99.90;;;;;;4994834;28;20155;-77
2023/04/09 04:51:06;;;;;;;7.53;5.78;;;6.00;99.90;;;;;;4979441;28;20153;-78
2023/04/09 04:53:33;;;;;;;10.05;7.63;;;6.00;99.90;;;;;;4973568;28;20494;-77
2023/04/09 04:56:00;;;;;;;8.10;6.70;;;6.00;99.90;;;;;;5011320;28;20060;-78
2023/04/09 04:58:29;;;;;;;8.40;6.40;;;6.00;99.90;;;;;;5005268;28;20184;-77
2023/04/09 05:00:56;;;;;;;7.03;6.05;;;6.00;99.90;;;;;;4979214;28;20127;-77
2023/04/09 05:03:22;;;;;;;9.02;6.55;;;6.00;99.90;;;;;;4979729;28;20061;-76
2023/04/09 05:05:53;;;;;;;9.23;6.85;;;6.00;99.90;;;;;;4996998;28;20050;-77
2023/04/09 05:08:20;;;;;;;9.48;7.28;;;6.00;99.90;;;;;;4972150;28;20074;-77
2023/04/09 05:10:47;;;;;;;8.48;6.97;;;6.00;99.90;;;;;;4983212;28;20377;-76
2023/04/09 05:13:14;;;;;;;9.73;7.18;;;6.00;99.90;;;;;;4990529;28;20046;-76
2023/04/09 05:15:41;;;;;;;8.00;5.95;;;6.00;99.90;;;;;;4994572;28;20156;-77
2023/04/09 05:18:08;;;;;;;8.27;6.47;;;6.00;99.90;;;;;;4979781;28;20053;-77
2023/04/09 05:20:35;;;;;;;7.43;6.32;;;6.00;99.90;;;;;;4992361;28;20133;-77
2023/04/09 05:23:01;;;;;;;7.45;6.07;;;5.90;99.90;;;;;;4990601;28;20492;-77
2023/04/09 05:25:28;;;;;;;8.88;7.13;;;5.90;99.90;;;;;;4971614;28;20073;-76
2023/04/09 05:27:56;;;;;;;7.75;6.32;;;5.90;99.90;;;;;;4983809;28;20049;-78
2023/04/09 05:30:23;;;;;;;6.47;5.32;;;5.90;99.90;;;;;;4996850;28;20139;-76
2023/04/09 05:32:50;;;;;;;7.05;5.35;;;5.90;99.90;;;;;;4980285;28;20050;-77
2023/04/09 05:35:17;;;;;;;7.32;5.68;;;5.90;99.90;;;;;;4979920;28;20569;-77
2023/04/09 05:37:44;;;;;;;6.75;5.75;;;5.90;99.90;;;;;;4993287;28;20050;-77
2023/04/09 05:40:11;;;;;;;6.55;5.55;;;5.90;99.90;;;;;;4996953;28;20050;-77
2023/04/09 05:42:38;;;;;;;7.05;5.85;;;5.90;99.90;;;;;;4969269;28;20050;-77
2023/04/09 05:45:06;;;;;;;7.05;5.82;;;5.90;99.90;;;;;;4972200;28;20153;-77
2023/04/09 05:47:32;;;;;;;7.15;5.50;;;5.90;99.90;;;;;;4976192;28;20065;-77
2023/04/09 05:49:59;;;;;;;7.18;5.45;;;5.90;99.90;;;;;;4976549;28;20046;-77
2023/04/09 05:52:27;;;;;;;7.57;5.90;;;5.90;99.90;;;;;;4987038;28;20879;-77
2023/04/09 05:54:54;;;;;;;6.82;5.72;;;5.90;99.90;;;;;;4963760;28;20058;-77
2023/04/09 05:57:21;;;;;;;8.32;6.32;;;5.90;99.90;;;;;;4971607;28;20073;-78
2023/04/09 05:59:48;;;;;;;9.00;7.18;;;5.90;99.90;;;;;;4974832;28;20045;-77
2023/04/09 06:02:15;;;;;;;8.07;6.60;;;5.90;99.90;;;;;;4986708;28;20513;-76
2023/04/09 06:04:42;;;;;;;8.80;6.85;;;5.90;99.90;;;;;;4973383;28;20042;-77
2023/04/09 06:07:09;;;;;;;7.05;6.25;;;5.90;99.90;;;;;;4991850;28;20046;-77
2023/04/09 06:09:37;;;;;;;6.53;5.40;;;5.90;99.90;;;;;;4990531;28;20049;-77
2023/04/09 06:12:04;;;;;;;6.15;5.20;;;6.00;99.90;;;;;;4988677;28;20058;-77
2023/04/09 06:14:31;;;;;;;7.10;5.30;;;6.00;99.90;;;;;;4973393;28;20497;-76
2023/04/09 06:16:59;;;;;;;7.15;5.78;;;6.10;99.90;;;;;;4978024;28;20045;-77
2023/04/09 06:19:26;;;;;;;6.75;5.78;;;6.10;99.90;;;;;;4994643;28;20784;-77
2023/04/09 06:21:53;;;;;;;6.55;5.68;;;6.10;99.90;;;;;;4979404;28;20050;-77
2023/04/09 06:24:20;;;;;;;7.43;5.70;;;6.10;99.90;;;;;;4993006;28;20045;-77
2023/04/09 06:26:47;;;;;;;6.30;5.35;;;6.10;99.90;;;;;;4984887;28;20298;-78
2023/04/09 06:29:14;;;;;;;5.97;5.07;;;6.10;99.90;;;;;;4981909;28;20073;-77
2023/04/09 06:31:42;;;;;;;5.70;4.63;;;6.10;99.90;;;;;;4985207;28;20062;-77
2023/04/09 06:34:09;;;;;;;6.05;4.65;;;6.20;99.90;;;;;;4996061;28;20054;-77
2023/04/09 06:36:39;;;;;;;4.88;4.00;;;6.30;99.90;;;;;;4979725;28;20045;-77
2023/04/09 06:39:06;;;;;;;6.75;5.25;;;6.30;99.90;;;;;;4995777;28;20061;-77
2023/04/09 06:41:33;;;;;;;5.75;4.70;;;6.40;99.90;;;;;;4996992;28;20054;-77
2023/04/09 06:44:00;;;;;;;6.55;5.15;;;6.50;99.90;;;;;;4994593;28;20048;-77
2023/04/09 06:46:27;;;;;;;5.60;4.72;;;6.50;99.90;;;;;;4993530;28;20062;-76
2023/04/09 06:48:54;;;;;;;5.85;4.35;;;6.60;99.90;;;;;;4990652;28;20121;-77
2023/04/09 06:51:21;;;;;;;5.38;4.32;;;6.70;99.90;;;;;;4972901;28;20525;-76
2023/04/09 06:53:48;;;;;;;5.53;4.40;;;6.80;99.90;;;;;;4988892;28;20046;-76
2023/04/09 06:56:15;;;;;;;5.93;4.72;;;6.90;99.90;;;;;;4990091;28;20122;-76
2023/04/09 06:58:42;;;;;;;5.63;4.72;;;7.00;99.90;;;;;;4986172;28;20637;-76
2023/04/09 07:01:09;;;;;;;6.38;5.70;;;7.10;99.90;;;;;;4980972;28;20174;-76
2023/04/09 07:03:36;;;;;;;6.75;5.15;;;7.10;99.90;;;;;;4970664;28;20058;-76
2023/04/09 07:06:03;;;;;;;6.45;5.15;;;7.30;99.90;;;;;;4991337;28;20054;-77
2023/04/09 07:08:30;;;;;;;6.30;4.80;;;7.40;99.90;;;;;;4973876;28;20053;-78
2023/04/09 07:10:57;;;;;;;6.10;5.18;;;7.40;99.90;;;;;;4988125;28;20137;-79
2023/04/09 07:13:24;;;;;;;7.50;4.60;;;7.50;99.90;;;;;;4994400;28;20042;-79
2023/04/09 07:15:51;;;;;;;6.35;5.18;;;7.50;99.90;;;;;;4979039;28;20752;-81
2023/04/09 07:18:19;;;;;;;7.03;5.85;;;7.50;99.90;;;;;;4976122;28;20085;-81
2023/04/09 07:20:45;;;;;;;8.32;7.18;;;7.50;99.90;;;;;;4999350;28;21337;-82
2023/04/09 07:23:12;;;;;;;6.25;5.22;;;7.40;99.90;;;;;;4974393;28;20047;-81
2023/04/09 07:25:39;;;;;;;7.85;6.53;;;7.40;99.90;;;;;;4975927;28;20672;-80
2023/04/09 07:28:08;;;;;;;7.00;5.78;;;7.40;99.90;;;;;;4984558;28;20133;-81
2023/04/09 07:30:35;;;;;;;7.00;6.15;;;7.40;99.90;;;;;;5008537;28;20054;-81
2023/04/09 07:33:02;;;;;;;7.03;5.57;;;7.50;99.90;;;;;;4976670;28;20116;-80
2023/04/09 07:35:30;;;;;;;7.63;5.88;;;7.70;99.90;;;;;;4974949;28;20490;-82
2023/04/09 07:37:57;;;;;;;8.52;6.65;;;7.80;99.90;;;;;;4985568;28;20054;-82
2023/04/09 07:40:24;;;;;;;7.80;6.57;;;7.80;99.90;;;;;;4986185;28;20081;-84
2023/04/09 07:42:52;;;;;;;7.95;6.35;;;7.90;99.90;;;;;;4970760;28;20050;-82
2023/04/09 07:45:19;;;;;;;6.20;4.80;;;8.00;99.90;;;;;;4992379;28;20136;-82
2023/04/09 07:47:46;;;;;;;7.05;5.53;;;8.20;99.90;;;;;;4983121;28;21333;-82
2023/04/09 07:50:13;;;;;;;6.57;5.25;;;8.30;99.90;;;;;;4977263;28;20123;-81
2023/04/09 07:52:40;;;;;;;7.57;6.18;;;8.40;99.90;;;;;;4973240;28;20100;-81
2023/04/09 07:55:07;;;;;;;5.50;4.50;;;8.60;99.90;;;;;;4975183;28;20482;-82
2023/04/09 07:57:35;;;;;;;5.78;5.18;;;8.60;99.90;;;;;;4992897;28;20078;-84
2023/04/09 08:00:04;;;;;;;7.25;5.70;;;8.70;99.90;;;;;;4989412;28;20145;-84
2023/04/09 08:02:31;;;;;;;6.35;5.25;;;8.70;99.90;;;;;;4988878;28;20050;-83
2023/04/09 08:04:58;;;;;;;7.45;6.50;;;8.70;99.90;;;;;;4977383;28;20046;-82
2023/04/09 08:07:25;;;;;;;7.70;6.05;;;8.60;99.90;;;;;;4989831;28;20062;-83
2023/04/09 08:09:52;;;;;;;7.50;5.93;;;8.70;99.90;;;;;;4993902;28;20103;-82
2023/04/09 08:12:19;;;;;;;7.93;5.95;;;8.70;99.90;;;;;;4996288;28;20060;-82
2023/04/09 08:14:46;;;;;;;6.70;5.85;;;8.80;99.90;;;;;;4989859;28;20075;-84
2023/04/09 08:17:13;;;;;;;6.70;5.68;;;8.90;99.90;;;;;;4969719;28;20050;-83
2023/04/09 08:19:39;;;;;;;6.22;5.28;;;8.90;99.90;;;;;;4967051;28;20042;-80
2023/04/09 08:22:07;;;;;;;7.28;6.15;;;9.00;99.90;;;;;;4986371;28;20078;-85
2023/04/09 08:24:34;;;;;;;6.60;5.45;;;9.00;99.90;;;;;;4972336;28;20528;-81
2023/04/09 08:27:01;;;;;;;7.63;5.70;;;9.10;99.90;;;;;;4989070;28;20115;-81
2023/04/09 08:29:28;;;;;;;7.78;6.07;;;9.10;99.90;;;;;;4971277;28;20116;-83
2023/04/09 08:31:56;;;;;;;6.70;6.00;;;9.20;99.90;;;;;;4973083;28;20086;-82
2023/04/09 08:34:22;;;;;;;6.45;5.43;;;9.20;99.90;;;;;;4987207;28;21526;-82
2023/04/09 08:36:49;;;;;;;6.90;5.65;;;9.20;99.90;;;;;;4981557;28;20753;-81
2023/04/09 08:39:19;;;;;;;6.70;5.50;;;9.20;99.90;;;;;;4987950;28;20133;-82
2023/04/09 08:41:47;;;;;;;6.57;5.78;;;9.30;99.90;;;;;;4987190;28;20057;-81
2023/04/09 08:44:14;;;;;;;6.35;5.43;;;9.30;99.90;;;;;;4956363;28;20064;-81
2023/04/09 08:46:41;;;;;;;6.45;5.57;;;9.40;99.90;;;;;;4987057;28;20062;-79
2023/04/09 08:49:09;;;;;;;7.65;5.90;;;9.40;99.90;;;;;;4971367;28;20050;-80
2023/04/09 08:51:38;;;;;;;6.50;5.40;;;9.50;99.90;;;;;;4978929;28;20505;-80
2023/04/09 08:54:05;;;;;;;5.95;5.03;;;9.60;99.90;;;;;;4983059;28;20118;-80
2023/04/09 08:56:32;;;;;;;8.15;6.15;;;9.60;99.90;;;;;;4983087;28;20850;-81
2023/04/09 08:59:01;;;;;;;6.40;5.72;;;9.80;99.90;;;;;;4971961;28;20329;-78
2023/04/09 09:01:29;;;;;;;5.72;4.80;;;9.90;99.90;;;;;;4955845;28;20133;-80
2023/04/09 09:04:02;;;;;;;7.00;5.78;;;10.10;99.90;;;;;;4983519;28;20050;-78
2023/04/09 09:06:34;;;;;;;7.10;6.22;;;10.10;99.90;;;;;;5000856;28;20067;-77
2023/04/09 09:09:10;;;;;;;6.53;5.45;;;10.20;99.90;;;;;;4989236;28;20486;-77
2023/04/09 09:11:40;;;;;;;8.00;5.72;;;10.40;99.90;;;;;;4987233;28;20060;-77
2023/04/09 09:14:08;;;;;;;7.28;5.97;;;10.50;99.90;;;;;;4985571;28;20049;-78
2023/04/09 09:16:41;;;;;;;6.95;6.07;;;10.60;99.90;;;;;;4970158;28;20397;-77
2023/04/09 09:19:09;;;;;;;6.35;5.28;;;10.60;99.90;;;;;;4968921;28;20053;-78
2023/04/09 09:21:37;;;;;;;6.55;5.85;;;10.70;99.90;;;;;;4996112;28;20498;-78
2023/04/09 09:24:15;;;;;;;6.57;5.47;;;10.80;99.90;;;;;;4953034;28;20449;-77
2023/04/09 09:26:42;;;;;;;6.95;6.25;;;10.90;99.90;;;;;;4970306;28;20359;-78
2023/04/09 09:29:09;;;;;;;8.65;7.45;;;11.00;99.90;;;;;;4989232;28;20168;-76
2023/04/09 09:31:48;;;;;;;8.43;6.63;;;11.10;99.90;;;;;;4987646;28;20061;-76
2023/04/09 09:34:18;;;;;;;8.00;6.60;;;11.20;99.90;;;;;;4983776;28;20137;-75
2023/04/09 09:36:45;;;;;;;5.93;5.05;;;11.40;99.90;;;;;;4985437;28;20078;-76
2023/04/09 09:39:12;;;;;;;6.88;5.55;;;11.60;99.90;;;;;;4944554;28;20422;-75
2023/04/09 09:41:42;;;;;;;7.30;5.47;;;11.70;99.90;;;;;;4983365;28;20191;-75
2023/04/09 09:44:10;;;;;;;5.75;5.20;;;12.00;99.90;;;;;;4981200;28;20053;-76
2023/04/09 09:46:39;;;;;;;5.43;4.88;;;12.20;99.90;;;;;;4980799;28;20093;-74
2023/04/09 09:49:06;;;;;;;5.30;4.80;;;12.40;99.90;;;;;;4992282;28;20058;-75
2023/04/09 09:51:36;;;;;;;5.60;5.00;;;12.60;99.90;;;;;;4981184;28;20732;-76
2023/04/09 09:54:02;;;;;;;5.70;4.72;;;12.80;99.90;;;;;;4984378;28;20088;-76
2023/04/09 09:56:31;;;;;;;5.07;4.35;;;12.90;99.90;;;;;;4987782;28;20046;-76
2023/04/09 09:59:20;;;;;;;4.63;4.13;;;13.00;99.90;;;;;;4970952;28;20196;-75
2023/04/09 10:01:48;;;;;;;5.60;4.95;;;13.00;99.90;;;;;;4982515;28;20057;-74
2023/04/09 10:04:15;;;;;;;5.20;4.68;;;12.90;99.90;;;;;;4985299;28;20054;-75
2023/04/09 10:06:43;;;;;;;5.78;5.18;;;12.90;99.90;;;;;;4969940;28;20226;-74
2023/04/09 10:09:10;;;;;;;4.57;3.78;;;13.00;99.90;;;;;;4987134;28;20805;-75
2023/04/09 10:11:37;;;;;;;6.05;4.05;;;13.00;99.90;;;;;;4983741;28;20670;-75
2023/04/09 10:14:04;;;;;;;4.15;3.72;;;13.10;99.90;;;;;;4990927;28;20648;-76
2023/04/09 10:16:31;;;;;;;5.53;4.63;;;13.10;99.90;;;;;;4973386;28;20447;-74
2023/04/09 10:18:58;;;;;;;5.40;4.90;;;13.20;99.90;;;;;;4973178;28;20050;-74
2023/04/09 10:21:55;;;;;;;5.30;4.57;;;13.20;99.90;;;;;;4970922;28;20058;-74
2023/04/09 10:24:22;;;;;;;5.47;4.85;;;13.30;99.90;;;;;;4989768;28;20136;-75
2023/04/09 10:26:49;;;;;;;4.60;3.78;;;13.30;99.90;;;;;;5000704;28;20045;-76
2023/04/09 10:29:17;;;;;;;5.97;4.78;;;13.40;99.90;;;;;;4973800;28;20139;-76
2023/04/09 10:31:52;;;;;;;4.63;3.50;;;13.40;99.90;;;;;;4983986;28;20208;-75
2023/04/09 10:34:23;;;;;;;5.22;4.30;;;13.50;99.90;;;;;;4983197;28;20116;-75
2023/04/09 10:36:57;;;;;;;4.65;3.65;;;13.50;99.90;;;;;;4980216;28;20054;-76
2023/04/09 10:39:30;;;;;;;4.80;3.92;;;13.70;99.90;;;;;;4974414;28;20074;-76
2023/04/09 10:41:58;;;;;;;5.03;4.50;;;13.80;99.90;;;;;;4975670;28;20089;-75
2023/04/09 10:44:26;;;;;;;6.72;4.35;;;13.80;99.90;;;;;;4984888;28;20547;-76
2023/04/09 10:46:54;;;;;;;5.63;4.40;;;13.90;99.90;;;;;;4975397;28;20516;-76
2023/04/09 10:49:27;;;;;;;5.68;4.18;;;13.90;99.90;;;;;;4974323;28;20112;-76
2023/04/09 10:52:06;;;;;;;4.45;4.03;;;13.90;99.90;;;;;;4982035;28;20507;-76
2023/04/09 10:54:42;;;;;;;4.65;4.25;;;13.90;99.90;;;;;;4991689;28;20682;-74
2023/04/09 10:57:16;;;;;;;;;;;14.00;99.90;;;;;;4980128;28;20363;-76
2023/04/09 10:59:51;;;;;;;5.85;4.00;;;14.10;99.90;;;;;;4990257;28;19996;-76
2023/04/09 11:02:36;;;;;;;6.20;4.43;;;14.20;99.90;;;;;;4993717;28;20057;-76
2023/04/09 11:05:23;;;;;;;4.13;3.72;;;14.30;99.90;;;;;;4986721;28;20058;-76
2023/04/09 11:08:10;;;;;;;6.28;5.45;;;14.30;99.90;;;;;;4995093;28;20133;-76
2023/04/09 11:10:38;;;;;;;5.95;5.35;;;14.40;99.90;;;;;;4990540;28;20093;-76
2023/04/09 11:13:05;;;;;;;5.75;4.80;;;14.50;99.90;;;;;;4989753;28;20144;-76
2023/04/09 11:15:34;;;;;;;7.10;6.38;;;14.60;99.90;;;;;;4985055;28;20665;-75
2023/04/09 11:18:01;;;;;;;5.97;5.15;;;14.60;99.90;;;;;;4988876;28;20315;-77
2023/04/09 11:20:29;;;;;;;4.55;4.15;;;14.70;99.90;;;;;;4987522;28;20461;-76
2023/04/09 11:22:57;;;;;;;5.03;4.03;;;14.80;99.90;;;;;;4987842;28;20050;-74
2023/04/09 11:25:25;;;;;;;5.25;4.22;;;15.00;99.90;;;;;;4986279;28;20054;-75
2023/04/09 11:27:52;;;;;;;4.65;4.03;;;15.30;99.90;;;;;;4989585;28;20053;-74
2023/04/09 11:30:19;;;;;;;3.35;3.05;;;15.50;99.90;;;;;;4972344;28;20046;-75
2023/04/09 11:32:46;;;;;;;4.13;3.63;;;15.80;99.90;;;;;;4986828;28;20165;-75
2023/04/09 11:35:18;;;;;;;4.35;3.95;;;16.00;99.90;;;;;;4988190;28;20679;-76
2023/04/09 11:37:45;;;;;;;4.68;3.97;;;16.30;99.90;;;;;;4989668;28;20060;-76
2023/04/09 11:40:33;;;;;;;4.68;4.03;;;16.50;99.90;;;;;;4986702;28;20259;-76
2023/04/09 11:43:01;;;;;;;5.57;4.97;;;17.00;99.90;;;;;;4991433;28;20064;-76
2023/04/09 11:45:29;;;;;;;4.90;4.40;;;17.30;99.90;;;;;;4972020;28;20148;-76
2023/04/09 11:47:56;;;;;;;5.22;4.15;;;17.50;99.90;;;;;;4973402;28;20050;-75
2023/04/09 11:50:24;;;;;;;4.70;4.07;;;17.70;99.90;;;;;;4988918;28;20058;-75
2023/04/09 11:52:51;;;;;;;5.05;4.53;;;17.80;99.90;;;;;;4986373;28;20176;-76
2023/04/09 11:55:25;;;;;;;5.07;4.57;;;18.10;99.90;;;;;;4985187;28;20236;-75
2023/04/09 11:57:56;;;;;;;4.63;4.22;;;18.30;99.90;;;;;;4992212;28;20059;-75
2023/04/09 12:00:23;;;;;;;3.97;3.58;;;18.50;99.90;;;;;;4979202;28;20521;-75
2023/04/09 12:02:58;;;;;;;4.38;3.83;;;18.60;99.90;;;;;;4991706;28;20311;-76
2023/04/09 12:05:27;;;;;;;5.13;4.38;;;18.90;99.90;;;;;;4988440;28;20292;-76
2023/04/09 12:08:06;;;;;;;5.05;4.35;;;19.00;99.90;;;;;;4976846;28;20137;-75
2023/04/09 12:10:35;;;;;;;3.63;3.33;;;19.20;99.90;;;;;;4987436;28;20148;-76
2023/04/09 12:13:07;;;;;;;4.03;3.60;;;19.60;99.40;;;;;;4989199;28;20054;-77
2023/04/09 12:15:35;;;;;;;4.40;4.00;;;19.50;97.30;;;;;;4991468;28;20581;-77
2023/04/09 12:18:02;;;;;;;4.45;4.05;;;19.50;98.40;;;;;;4978196;28;20433;-78
2023/04/09 12:20:40;;;;;;;5.07;4.57;;;19.60;97.60;;;;;;4967758;28;20144;-77
2023/04/09 12:23:07;;;;;;;3.80;3.50;;;19.80;97.50;;;;;;4994465;28;20077;-77
2023/04/09 12:25:36;;;;;;;3.67;3.33;;;20.00;96.50;;;;;;4975621;28;20057;-78
2023/04/09 12:28:04;;;;;;;2.80;2.50;;;20.50;95.90;;;;;;4974461;28;20154;-78
2023/04/09 12:30:32;;;;;;;2.80;2.47;;;20.90;95.50;;;;;;4972171;28;20077;-79
2023/04/09 12:33:00;;;;;;;3.13;2.83;;;21.30;94.40;;;;;;4977426;28;20065;-79
2023/04/09 12:35:28;;;;;;;3.28;2.88;;;21.70;93.10;;;;;;4978947;28;20054;-78
2023/04/09 12:37:55;;;;;;;3.35;2.72;;;21.90;93.70;;;;;;5011156;28;20049;-79
2023/04/09 12:40:22;;;;;;;3.65;2.83;;;22.10;92.80;;;;;;5012582;28;20046;-79
2023/04/09 12:42:49;;;;;;;3.08;2.78;;;22.20;92.50;;;;;;4995729;28;20644;-79
2023/04/09 12:45:16;;;;;;;3.00;2.70;;;22.50;92.20;;;;;;4975834;28;20556;-79
2023/04/09 12:47:43;;;;;;;3.65;3.35;;;22.90;91.20;;;;;;4981039;28;20565;-78
2023/04/09 12:50:10;;;;;;;3.20;2.90;;;23.00;90.10;;;;;;4980415;28;20378;-80
2023/04/09 12:52:37;;;;;;;3.65;3.35;;;23.10;90.20;;;;;;4975675;28;20060;-80
2023/04/09 12:55:05;;;;;;;4.60;3.85;;;23.00;90.20;;;;;;4987182;28;20073;-79
2023/04/09 12:57:32;;;;;;;4.28;3.88;;;22.70;89.70;;;;;;4986673;28;20632;-79
2023/04/09 12:59:59;;;;;;;4.20;3.80;;;22.60;89.40;;;;;;4994655;28;20061;-79
2023/04/09 13:02:26;;;;;;;3.63;3.15;;;23.00;89.40;;;;;;4995752;28;20057;-80